sensor_id;sensor_type;location;lat;lon;timestamp;P1;durP1;ratioP1;P2;durP2;ratioP2
26113;SDS011;13966;48.828;9.064;2023-05-09T00:00:42;16.80;;;12.80;;
26113;SDS011;13966;48.828;9.064;2023-05-09T00:03:08;18.60;;;13.75;;
26113;SDS011;13966;48.828;9.064;2023-05-09T00:05:35;16.55;;;14.13;;
26113;SDS011;13966;48.828;9.064;2023-05-09T00:08:01;17.35;;;14.25;;
26113;SDS011;13966;48.828;9.064;2023-05-09T00:10:27;17.67;;;12.90;;
26113;SDS011;13966;48.828;9.064;2023-05-09T00:12:53;19.65;;;13.63;;
26113;SDS011;13966;48.828;9.064;2023-05-09T00:15:20;17.33;;;13.68;;
26113;SDS011;13966;48.828;9.064;2023-05-09T00:17:47;16.55;;;14.10;;
26113;SDS011;13966;48.828;9.064;2023-05-09T00:20:14;23.45;;;13.98;;
26113;SDS011;13966;48.828;9.064;2023-05-09T00:22:40;15.05;;;13.07;;
26113;SDS011;13966;48.828;9.064;2023-05-09T00:25:07;17.70;;;13.77;;
26113;SDS011;13966;48.828;9.064;2023-05-09T00:27:33;15.57;;;13.20;;
26113;SDS011;13966;48.828;9.064;2023-05-09T00:29:59;18.33;;;14.50;;
26113;SDS011;13966;48.828;9.064;2023-05-09T00:32:25;16.35;;;12.80;;
26113;SDS011;13966;48.828;9.064;2023-05-09T00:34:53;18.77;;;13.93;;
26113;SDS011;13966;48.828;9.064;2023-05-09T00:37:19;15.48;;;13.35;;
26113;SDS011;13966;48.828;9.064;2023-05-09T00:39:46;17.17;;;13.80;;
26113;SDS011;13966;48.828;9.064;2023-05-09T00:42:11;19.92;;;13.73;;
26113;SDS011;13966;48.828;9.064;2023-05-09T00:44:38;16.20;;;13.52;;
26113;SDS011;13966;48.828;9.064;2023-05-09T00:47:04;20.42;;;13.95;;
26113;SDS011;13966;48.828;9.064;2023-05-09T00:49:30;19.42;;;13.55;;
26113;SDS011;13966;48.828;9.064;2023-05-09T00:51:56;18.27;;;12.93;;
26113;SDS011;13966;48.828;9.064;2023-05-09T00:54:23;17.60;;;13.50;;
26113;SDS011;13966;48.828;9.064;2023-05-09T00:56:49;14.27;;;12.70;;
26113;SDS011;13966;48.828;9.064;2023-05-09T00:59:15;16.60;;;13.95;;
26113;SDS011;13966;48.828;9.064;2023-05-09T01:01:42;16.48;;;13.45;;
26113;SDS011;13966;48.828;9.064;2023-05-09T01:04:09;17.67;;;14.07;;
26113;SDS011;13966;48.828;9.064;2023-05-09T01:06:36;17.35;;;14.10;;
26113;SDS011;13966;48.828;9.064;2023-05-09T01:14:21;20.20;;;14.43;;
26113;SDS011;13966;48.828;9.064;2023-05-09T01:16:55;18.73;;;14.93;;
26113;SDS011;13966;48.828;9.064;2023-05-09T01:21:51;20.75;;;14.05;;
26113;SDS011;13966;48.828;9.064;2023-05-09T01:31:56;18.63;;;14.95;;
26113;SDS011;13966;48.828;9.064;2023-05-09T01:34:24;20.73;;;14.75;;
26113;SDS011;13966;48.828;9.064;2023-05-09T01:36:51;19.40;;;15.13;;
26113;SDS011;13966;48.828;9.064;2023-05-09T01:39:19;19.80;;;15.07;;
26113;SDS011;13966;48.828;9.064;2023-05-09T01:41:46;18.92;;;14.57;;
26113;SDS011;13966;48.828;9.064;2023-05-09T01:44:13;20.27;;;15.13;;
26113;SDS011;13966;48.828;9.064;2023-05-09T01:46:40;22.05;;;14.80;;
26113;SDS011;13966;48.828;9.064;2023-05-09T01:49:07;21.52;;;15.52;;
26113;SDS011;13966;48.828;9.064;2023-05-09T01:51:33;20.88;;;14.93;;
26113;SDS011;13966;48.828;9.064;2023-05-09T01:54:01;18.45;;;14.60;;
26113;SDS011;13966;48.828;9.064;2023-05-09T01:56:28;18.23;;;14.88;;
26113;SDS011;13966;48.828;9.064;2023-05-09T01:58:55;22.00;;;14.57;;
26113;SDS011;13966;48.828;9.064;2023-05-09T02:01:21;19.88;;;14.88;;
26113;SDS011;13966;48.828;9.064;2023-05-09T02:03:48;18.67;;;14.73;;
26113;SDS011;13966;48.828;9.064;2023-05-09T02:06:17;17.77;;;13.55;;
26113;SDS011;13966;48.828;9.064;2023-05-09T02:08:44;19.02;;;15.43;;
26113;SDS011;13966;48.828;9.064;2023-05-09T02:11:11;18.13;;;15.10;;
26113;SDS011;13966;48.828;9.064;2023-05-09T02:13:37;25.13;;;17.17;;
26113;SDS011;13966;48.828;9.064;2023-05-09T02:16:04;22.77;;;15.77;;
26113;SDS011;13966;48.828;9.064;2023-05-09T02:18:30;18.67;;;15.43;;
26113;SDS011;13966;48.828;9.064;2023-05-09T02:20:56;20.63;;;14.90;;
26113;SDS011;13966;48.828;9.064;2023-05-09T02:23:22;19.55;;;15.02;;
26113;SDS011;13966;48.828;9.064;2023-05-09T02:25:48;22.35;;;15.60;;
26113;SDS011;13966;48.828;9.064;2023-05-09T02:28:15;22.45;;;15.63;;
26113;SDS011;13966;48.828;9.064;2023-05-09T02:30:43;18.40;;;14.25;;
26113;SDS011;13966;48.828;9.064;2023-05-09T02:33:09;19.73;;;14.73;;
26113;SDS011;13966;48.828;9.064;2023-05-09T02:35:36;18.00;;;14.23;;
26113;SDS011;13966;48.828;9.064;2023-05-09T02:38:02;21.30;;;15.57;;
26113;SDS011;13966;48.828;9.064;2023-05-09T02:40:28;18.98;;;14.77;;
26113;SDS011;13966;48.828;9.064;2023-05-09T02:42:55;19.17;;;14.80;;
26113;SDS011;13966;48.828;9.064;2023-05-09T02:45:21;18.55;;;15.57;;
26113;SDS011;13966;48.828;9.064;2023-05-09T02:47:47;22.38;;;16.27;;
26113;SDS011;13966;48.828;9.064;2023-05-09T02:50:13;22.17;;;16.13;;
26113;SDS011;13966;48.828;9.064;2023-05-09T02:52:39;23.25;;;15.77;;
26113;SDS011;13966;48.828;9.064;2023-05-09T02:55:05;21.38;;;16.38;;
26113;SDS011;13966;48.828;9.064;2023-05-09T02:57:32;21.08;;;15.05;;
26113;SDS011;13966;48.828;9.064;2023-05-09T02:59:58;21.30;;;15.40;;
26113;SDS011;13966;48.828;9.064;2023-05-09T03:02:24;21.55;;;16.15;;
26113;SDS011;13966;48.828;9.064;2023-05-09T03:04:50;18.92;;;14.45;;
26113;SDS011;13966;48.828;9.064;2023-05-09T03:07:16;19.33;;;14.52;;
26113;SDS011;13966;48.828;9.064;2023-05-09T03:09:42;18.98;;;14.95;;
26113;SDS011;13966;48.828;9.064;2023-05-09T03:12:08;17.88;;;14.30;;
26113;SDS011;13966;48.828;9.064;2023-05-09T03:14:34;19.30;;;13.60;;
26113;SDS011;13966;48.828;9.064;2023-05-09T03:17:00;18.20;;;13.63;;
26113;SDS011;13966;48.828;9.064;2023-05-09T03:19:26;19.63;;;14.02;;
26113;SDS011;13966;48.828;9.064;2023-05-09T03:21:52;20.05;;;15.15;;
26113;SDS011;13966;48.828;9.064;2023-05-09T03:24:18;18.40;;;14.43;;
26113;SDS011;13966;48.828;9.064;2023-05-09T03:26:44;19.05;;;14.88;;
26113;SDS011;13966;48.828;9.064;2023-05-09T03:29:10;22.08;;;14.38;;
26113;SDS011;13966;48.828;9.064;2023-05-09T03:31:36;20.90;;;16.30;;
26113;SDS011;13966;48.828;9.064;2023-05-09T03:34:02;19.50;;;15.05;;
26113;SDS011;13966;48.828;9.064;2023-05-09T03:36:28;21.65;;;16.60;;
26113;SDS011;13966;48.828;9.064;2023-05-09T03:38:55;20.45;;;15.30;;
26113;SDS011;13966;48.828;9.064;2023-05-09T03:41:21;23.20;;;15.73;;
26113;SDS011;13966;48.828;9.064;2023-05-09T03:43:47;19.27;;;14.40;;
26113;SDS011;13966;48.828;9.064;2023-05-09T03:46:13;18.98;;;15.43;;
26113;SDS011;13966;48.828;9.064;2023-05-09T03:48:39;21.42;;;16.27;;
26113;SDS011;13966;48.828;9.064;2023-05-09T03:51:05;20.30;;;15.85;;
26113;SDS011;13966;48.828;9.064;2023-05-09T03:53:31;22.38;;;15.30;;
26113;SDS011;13966;48.828;9.064;2023-05-09T03:55:57;20.88;;;16.05;;
26113;SDS011;13966;48.828;9.064;2023-05-09T03:58:23;18.20;;;15.07;;
26113;SDS011;13966;48.828;9.064;2023-05-09T04:00:50;20.35;;;14.75;;
26113;SDS011;13966;48.828;9.064;2023-05-09T04:03:16;20.63;;;15.40;;
26113;SDS011;13966;48.828;9.064;2023-05-09T04:05:42;21.98;;;16.55;;
26113;SDS011;13966;48.828;9.064;2023-05-09T04:08:08;22.00;;;15.95;;
26113;SDS011;13966;48.828;9.064;2023-05-09T04:10:34;20.40;;;16.17;;
26113;SDS011;13966;48.828;9.064;2023-05-09T04:13:00;22.08;;;16.25;;
26113;SDS011;13966;48.828;9.064;2023-05-09T04:15:26;21.45;;;16.38;;
26113;SDS011;13966;48.828;9.064;2023-05-09T04:17:52;22.25;;;16.85;;
26113;SDS011;13966;48.828;9.064;2023-05-09T04:20:18;19.20;;;15.63;;
26113;SDS011;13966;48.828;9.064;2023-05-09T04:22:44;19.63;;;15.80;;
26113;SDS011;13966;48.828;9.064;2023-05-09T04:25:10;24.75;;;18.40;;
26113;SDS011;13966;48.828;9.064;2023-05-09T04:27:38;28.05;;;21.42;;
26113;SDS011;13966;48.828;9.064;2023-05-09T04:30:04;23.98;;;19.45;;
26113;SDS011;13966;48.828;9.064;2023-05-09T04:32:30;22.05;;;16.75;;
26113;SDS011;13966;48.828;9.064;2023-05-09T04:34:57;22.67;;;17.38;;
26113;SDS011;13966;48.828;9.064;2023-05-09T04:37:22;25.02;;;17.20;;
26113;SDS011;13966;48.828;9.064;2023-05-09T04:39:48;23.13;;;16.40;;
26113;SDS011;13966;48.828;9.064;2023-05-09T04:42:14;21.88;;;16.83;;
26113;SDS011;13966;48.828;9.064;2023-05-09T04:44:40;24.95;;;17.33;;
26113;SDS011;13966;48.828;9.064;2023-05-09T04:47:06;22.25;;;17.88;;
26113;SDS011;13966;48.828;9.064;2023-05-09T04:49:32;27.35;;;16.77;;
26113;SDS011;13966;48.828;9.064;2023-05-09T04:51:58;20.48;;;16.05;;
26113;SDS011;13966;48.828;9.064;2023-05-09T04:54:24;20.30;;;16.20;;
26113;SDS011;13966;48.828;9.064;2023-05-09T04:56:50;24.92;;;19.35;;
26113;SDS011;13966;48.828;9.064;2023-05-09T04:59:16;27.40;;;19.45;;
26113;SDS011;13966;48.828;9.064;2023-05-09T05:01:42;28.10;;;20.85;;
26113;SDS011;13966;48.828;9.064;2023-05-09T05:04:08;30.33;;;21.65;;
26113;SDS011;13966;48.828;9.064;2023-05-09T05:06:34;33.45;;;21.55;;
26113;SDS011;13966;48.828;9.064;2023-05-09T05:09:00;29.98;;;22.13;;
26113;SDS011;13966;48.828;9.064;2023-05-09T05:11:26;29.77;;;21.13;;
26113;SDS011;13966;48.828;9.064;2023-05-09T05:13:52;27.35;;;20.42;;
26113;SDS011;13966;48.828;9.064;2023-05-09T05:16:18;26.65;;;20.75;;
26113;SDS011;13966;48.828;9.064;2023-05-09T05:18:44;28.80;;;21.20;;
26113;SDS011;13966;48.828;9.064;2023-05-09T05:21:10;30.63;;;21.90;;
26113;SDS011;13966;48.828;9.064;2023-05-09T05:23:36;30.75;;;21.40;;
26113;SDS011;13966;48.828;9.064;2023-05-09T05:26:02;30.60;;;22.45;;
26113;SDS011;13966;48.828;9.064;2023-05-09T05:28:28;26.65;;;20.33;;
26113;SDS011;13966;48.828;9.064;2023-05-09T05:30:54;28.38;;;19.92;;
26113;SDS011;13966;48.828;9.064;2023-05-09T05:33:20;26.98;;;19.85;;
26113;SDS011;13966;48.828;9.064;2023-05-09T05:35:46;28.90;;;20.38;;
26113;SDS011;13966;48.828;9.064;2023-05-09T05:38:12;27.55;;;19.42;;
26113;SDS011;13966;48.828;9.064;2023-05-09T05:40:38;32.33;;;20.88;;
26113;SDS011;13966;48.828;9.064;2023-05-09T05:43:04;24.20;;;18.35;;
26113;SDS011;13966;48.828;9.064;2023-05-09T05:45:30;26.75;;;20.17;;
26113;SDS011;13966;48.828;9.064;2023-05-09T05:47:56;25.45;;;18.48;;
26113;SDS011;13966;48.828;9.064;2023-05-09T05:50:22;27.35;;;19.55;;
26113;SDS011;13966;48.828;9.064;2023-05-09T05:52:48;27.90;;;18.35;;
26113;SDS011;13966;48.828;9.064;2023-05-09T05:55:14;24.80;;;18.58;;
26113;SDS011;13966;48.828;9.064;2023-05-09T05:57:40;25.55;;;18.33;;
26113;SDS011;13966;48.828;9.064;2023-05-09T06:00:06;23.60;;;18.92;;
26113;SDS011;13966;48.828;9.064;2023-05-09T06:02:35;24.25;;;17.63;;
26113;SDS011;13966;48.828;9.064;2023-05-09T06:05:01;21.13;;;16.65;;
26113;SDS011;13966;48.828;9.064;2023-05-09T06:07:27;22.70;;;17.70;;
26113;SDS011;13966;48.828;9.064;2023-05-09T06:09:53;25.23;;;18.17;;
26113;SDS011;13966;48.828;9.064;2023-05-09T06:12:20;25.25;;;17.92;;
26113;SDS011;13966;48.828;9.064;2023-05-09T06:14:46;20.95;;;16.17;;
26113;SDS011;13966;48.828;9.064;2023-05-09T06:17:11;18.83;;;15.25;;
26113;SDS011;13966;48.828;9.064;2023-05-09T06:19:37;17.73;;;14.40;;
26113;SDS011;13966;48.828;9.064;2023-05-09T06:22:03;15.32;;;12.07;;
26113;SDS011;13966;48.828;9.064;2023-05-09T06:24:29;17.50;;;12.88;;
26113;SDS011;13966;48.828;9.064;2023-05-09T06:26:55;16.10;;;13.55;;
26113;SDS011;13966;48.828;9.064;2023-05-09T06:29:21;16.95;;;12.65;;
26113;SDS011;13966;48.828;9.064;2023-05-09T06:31:47;18.15;;;13.05;;
26113;SDS011;13966;48.828;9.064;2023-05-09T06:34:13;15.45;;;12.98;;
26113;SDS011;13966;48.828;9.064;2023-05-09T06:36:39;17.27;;;12.23;;
26113;SDS011;13966;48.828;9.064;2023-05-09T06:39:05;19.10;;;12.32;;
26113;SDS011;13966;48.828;9.064;2023-05-09T06:41:31;16.75;;;12.30;;
26113;SDS011;13966;48.828;9.064;2023-05-09T06:43:57;20.02;;;12.90;;
26113;SDS011;13966;48.828;9.064;2023-05-09T06:46:23;15.50;;;12.45;;
26113;SDS011;13966;48.828;9.064;2023-05-09T06:48:50;15.32;;;12.73;;
26113;SDS011;13966;48.828;9.064;2023-05-09T06:51:16;14.35;;;11.82;;
26113;SDS011;13966;48.828;9.064;2023-05-09T06:53:42;14.57;;;11.77;;
26113;SDS011;13966;48.828;9.064;2023-05-09T06:56:08;12.88;;;10.98;;
26113;SDS011;13966;48.828;9.064;2023-05-09T06:58:34;14.85;;;11.45;;
26113;SDS011;13966;48.828;9.064;2023-05-09T07:01:00;14.40;;;11.07;;
26113;SDS011;13966;48.828;9.064;2023-05-09T07:03:26;12.10;;;9.75;;
26113;SDS011;13966;48.828;9.064;2023-05-09T07:05:52;12.00;;;9.85;;
26113;SDS011;13966;48.828;9.064;2023-05-09T07:08:20;12.32;;;9.35;;
26113;SDS011;13966;48.828;9.064;2023-05-09T07:10:46;11.35;;;9.55;;
26113;SDS011;13966;48.828;9.064;2023-05-09T07:13:12;10.02;;;8.93;;
26113;SDS011;13966;48.828;9.064;2023-05-09T07:15:38;11.65;;;8.68;;
26113;SDS011;13966;48.828;9.064;2023-05-09T07:18:04;12.88;;;7.88;;
26113;SDS011;13966;48.828;9.064;2023-05-09T07:20:30;11.73;;;9.27;;
26113;SDS011;13966;48.828;9.064;2023-05-09T07:22:56;9.88;;;8.05;;
26113;SDS011;13966;48.828;9.064;2023-05-09T07:25:22;9.35;;;7.85;;
26113;SDS011;13966;48.828;9.064;2023-05-09T07:27:48;10.70;;;8.50;;
26113;SDS011;13966;48.828;9.064;2023-05-09T07:30:14;10.60;;;8.13;;
26113;SDS011;13966;48.828;9.064;2023-05-09T07:32:40;8.88;;;6.78;;
26113;SDS011;13966;48.828;9.064;2023-05-09T07:35:06;9.35;;;7.50;;
26113;SDS011;13966;48.828;9.064;2023-05-09T07:37:32;10.35;;;7.78;;
26113;SDS011;13966;48.828;9.064;2023-05-09T07:39:58;12.52;;;7.30;;
26113;SDS011;13966;48.828;9.064;2023-05-09T07:42:25;11.13;;;8.43;;
26113;SDS011;13966;48.828;9.064;2023-05-09T07:44:51;11.63;;;8.63;;
26113;SDS011;13966;48.828;9.064;2023-05-09T07:47:17;13.20;;;9.75;;
26113;SDS011;13966;48.828;9.064;2023-05-09T07:49:43;12.02;;;9.40;;
26113;SDS011;13966;48.828;9.064;2023-05-09T07:52:10;14.23;;;10.73;;
26113;SDS011;13966;48.828;9.064;2023-05-09T07:54:36;13.15;;;10.73;;
26113;SDS011;13966;48.828;9.064;2023-05-09T07:57:02;16.58;;;11.55;;
26113;SDS011;13966;48.828;9.064;2023-05-09T07:59:28;13.32;;;11.27;;
26113;SDS011;13966;48.828;9.064;2023-05-09T08:01:54;13.63;;;10.00;;
26113;SDS011;13966;48.828;9.064;2023-05-09T08:04:20;13.43;;;9.90;;
26113;SDS011;13966;48.828;9.064;2023-05-09T08:06:46;13.35;;;9.95;;
26113;SDS011;13966;48.828;9.064;2023-05-09T08:09:12;13.45;;;8.43;;
26113;SDS011;13966;48.828;9.064;2023-05-09T08:11:38;14.07;;;9.27;;
26113;SDS011;13966;48.828;9.064;2023-05-09T08:14:04;13.98;;;9.23;;
26113;SDS011;13966;48.828;9.064;2023-05-09T08:16:30;15.05;;;8.55;;
26113;SDS011;13966;48.828;9.064;2023-05-09T08:18:56;11.75;;;8.05;;
26113;SDS011;13966;48.828;9.064;2023-05-09T08:21:22;12.02;;;8.85;;
26113;SDS011;13966;48.828;9.064;2023-05-09T08:23:48;8.55;;;7.55;;
26113;SDS011;13966;48.828;9.064;2023-05-09T08:26:14;10.57;;;8.80;;
26113;SDS011;13966;48.828;9.064;2023-05-09T08:28:40;9.70;;;8.57;;
26113;SDS011;13966;48.828;9.064;2023-05-09T08:31:06;10.35;;;8.68;;
26113;SDS011;13966;48.828;9.064;2023-05-09T08:33:32;11.60;;;8.90;;
26113;SDS011;13966;48.828;9.064;2023-05-09T08:35:58;7.05;;;6.32;;
26113;SDS011;13966;48.828;9.064;2023-05-09T08:38:24;6.55;;;5.30;;
26113;SDS011;13966;48.828;9.064;2023-05-09T08:40:50;8.95;;;6.88;;
26113;SDS011;13966;48.828;9.064;2023-05-09T08:43:16;10.40;;;7.63;;
26113;SDS011;13966;48.828;9.064;2023-05-09T08:48:38;8.57;;;7.38;;
26113;SDS011;13966;48.828;9.064;2023-05-09T08:51:05;9.65;;;7.00;;
26113;SDS011;13966;48.828;9.064;2023-05-09T08:53:31;6.32;;;5.50;;
26113;SDS011;13966;48.828;9.064;2023-05-09T08:55:57;14.27;;;5.60;;
26113;SDS011;13966;48.828;9.064;2023-05-09T08:58:25;6.70;;;5.97;;
26113;SDS011;13966;48.828;9.064;2023-05-09T09:00:51;6.60;;;5.57;;
26113;SDS011;13966;48.828;9.064;2023-05-09T09:03:17;7.05;;;5.90;;
26113;SDS011;13966;48.828;9.064;2023-05-09T09:05:43;6.57;;;5.93;;
26113;SDS011;13966;48.828;9.064;2023-05-09T09:08:09;7.57;;;5.15;;
26113;SDS011;13966;48.828;9.064;2023-05-09T09:10:35;7.93;;;5.82;;
26113;SDS011;13966;48.828;9.064;2023-05-09T09:13:04;7.85;;;5.80;;
26113;SDS011;13966;48.828;9.064;2023-05-09T09:15:33;7.68;;;5.20;;
26113;SDS011;13966;48.828;9.064;2023-05-09T09:18:03;9.27;;;5.00;;
26113;SDS011;13966;48.828;9.064;2023-05-09T09:20:30;5.78;;;3.97;;
26113;SDS011;13966;48.828;9.064;2023-05-09T09:22:58;7.10;;;5.32;;
26113;SDS011;13966;48.828;9.064;2023-05-09T09:25:27;4.97;;;4.40;;
26113;SDS011;13966;48.828;9.064;2023-05-09T09:27:54;10.35;;;5.10;;
26113;SDS011;13966;48.828;9.064;2023-05-09T09:30:21;10.73;;;5.40;;
26113;SDS011;13966;48.828;9.064;2023-05-09T09:32:48;4.95;;;4.35;;
26113;SDS011;13966;48.828;9.064;2023-05-09T09:35:14;6.55;;;4.45;;
26113;SDS011;13966;48.828;9.064;2023-05-09T09:37:40;9.75;;;5.90;;
26113;SDS011;13966;48.828;9.064;2023-05-09T09:40:07;6.07;;;4.88;;
26113;SDS011;13966;48.828;9.064;2023-05-09T09:42:39;5.40;;;4.65;;
26113;SDS011;13966;48.828;9.064;2023-05-09T09:47:34;9.63;;;6.07;;
26113;SDS011;13966;48.828;9.064;2023-05-09T09:50:08;8.35;;;5.47;;
26113;SDS011;13966;48.828;9.064;2023-05-09T09:52:35;6.68;;;5.68;;
26113;SDS011;13966;48.828;9.064;2023-05-09T09:55:00;7.28;;;6.20;;
26113;SDS011;13966;48.828;9.064;2023-05-09T09:57:33;8.10;;;6.32;;
26113;SDS011;13966;48.828;9.064;2023-05-09T10:00:00;9.13;;;6.43;;
26113;SDS011;13966;48.828;9.064;2023-05-09T10:02:26;7.38;;;5.70;;
26113;SDS011;13966;48.828;9.064;2023-05-09T10:04:52;8.15;;;6.30;;
26113;SDS011;13966;48.828;9.064;2023-05-09T10:07:18;7.20;;;5.82;;
26113;SDS011;13966;48.828;9.064;2023-05-09T10:09:47;7.65;;;6.43;;
26113;SDS011;13966;48.828;9.064;2023-05-09T10:12:13;7.78;;;6.60;;
26113;SDS011;13966;48.828;9.064;2023-05-09T10:14:43;10.18;;;6.90;;
26113;SDS011;13966;48.828;9.064;2023-05-09T10:17:10;9.60;;;6.45;;
26113;SDS011;13966;48.828;9.064;2023-05-09T10:19:38;6.88;;;5.43;;
26113;SDS011;13966;48.828;9.064;2023-05-09T10:22:08;5.60;;;4.63;;
26113;SDS011;13966;48.828;9.064;2023-05-09T10:24:46;6.50;;;5.80;;
26113;SDS011;13966;48.828;9.064;2023-05-09T10:27:13;6.22;;;4.88;;
26113;SDS011;13966;48.828;9.064;2023-05-09T10:29:40;6.28;;;5.28;;
26113;SDS011;13966;48.828;9.064;2023-05-09T10:32:14;8.77;;;6.00;;
26113;SDS011;13966;48.828;9.064;2023-05-09T10:34:41;7.88;;;6.05;;
26113;SDS011;13966;48.828;9.064;2023-05-09T10:37:08;9.77;;;6.20;;
26113;SDS011;13966;48.828;9.064;2023-05-09T10:39:35;6.60;;;5.20;;
26113;SDS011;13966;48.828;9.064;2023-05-09T10:42:01;5.05;;;4.50;;
26113;SDS011;13966;48.828;9.064;2023-05-09T10:44:27;7.00;;;5.25;;
26113;SDS011;13966;48.828;9.064;2023-05-09T10:46:53;5.22;;;4.72;;
26113;SDS011;13966;48.828;9.064;2023-05-09T10:49:20;6.53;;;5.53;;
26113;SDS011;13966;48.828;9.064;2023-05-09T10:51:48;4.60;;;4.18;;
26113;SDS011;13966;48.828;9.064;2023-05-09T10:54:24;5.22;;;4.43;;
26113;SDS011;13966;48.828;9.064;2023-05-09T10:56:51;4.82;;;4.32;;
26113;SDS011;13966;48.828;9.064;2023-05-09T11:01:59;7.15;;;4.88;;
26113;SDS011;13966;48.828;9.064;2023-05-09T11:04:27;15.23;;;5.18;;
26113;SDS011;13966;48.828;9.064;2023-05-09T11:06:53;10.18;;;4.90;;
26113;SDS011;13966;48.828;9.064;2023-05-09T11:09:37;6.63;;;4.30;;
26113;SDS011;13966;48.828;9.064;2023-05-09T11:14:47;7.72;;;4.00;;
26113;SDS011;13966;48.828;9.064;2023-05-09T11:22:12;5.93;;;4.30;;
26113;SDS011;13966;48.828;9.064;2023-05-09T11:24:39;8.90;;;4.50;;
26113;SDS011;13966;48.828;9.064;2023-05-09T11:27:18;5.38;;;4.57;;
26113;SDS011;13966;48.828;9.064;2023-05-09T11:29:45;5.50;;;4.90;;
26113;SDS011;13966;48.828;9.064;2023-05-09T11:32:14;7.75;;;5.03;;
26113;SDS011;13966;48.828;9.064;2023-05-09T11:34:41;6.38;;;4.85;;
26113;SDS011;13966;48.828;9.064;2023-05-09T11:37:08;7.28;;;4.68;;
26113;SDS011;13966;48.828;9.064;2023-05-09T11:39:35;9.52;;;5.70;;
26113;SDS011;13966;48.828;9.064;2023-05-09T11:42:19;5.75;;;3.67;;
26113;SDS011;13966;48.828;9.064;2023-05-09T11:44:45;6.22;;;4.93;;
26113;SDS011;13966;48.828;9.064;2023-05-09T11:47:12;8.63;;;4.65;;
26113;SDS011;13966;48.828;9.064;2023-05-09T11:49:42;6.75;;;4.07;;
26113;SDS011;13966;48.828;9.064;2023-05-09T11:52:08;6.80;;;3.65;;
26113;SDS011;13966;48.828;9.064;2023-05-09T11:54:37;3.75;;;3.38;;
26113;SDS011;13966;48.828;9.064;2023-05-09T11:57:04;3.67;;;3.38;;
26113;SDS011;13966;48.828;9.064;2023-05-09T11:59:30;3.58;;;2.92;;
26113;SDS011;13966;48.828;9.064;2023-05-09T12:01:56;4.10;;;3.22;;
26113;SDS011;13966;48.828;9.064;2023-05-09T12:04:27;3.08;;;2.65;;
26113;SDS011;13966;48.828;9.064;2023-05-09T12:06:56;2.50;;;2.30;;
26113;SDS011;13966;48.828;9.064;2023-05-09T12:09:23;2.63;;;2.25;;
26113;SDS011;13966;48.828;9.064;2023-05-09T12:11:50;3.30;;;2.28;;
26113;SDS011;13966;48.828;9.064;2023-05-09T12:14:29;1.60;;;1.50;;
26113;SDS011;13966;48.828;9.064;2023-05-09T12:16:55;1.40;;;1.30;;
26113;SDS011;13966;48.828;9.064;2023-05-09T12:19:22;3.42;;;1.67;;
26113;SDS011;13966;48.828;9.064;2023-05-09T12:21:48;1.70;;;1.48;;
26113;SDS011;13966;48.828;9.064;2023-05-09T12:24:19;1.52;;;1.40;;
26113;SDS011;13966;48.828;9.064;2023-05-09T12:26:46;3.47;;;1.80;;
26113;SDS011;13966;48.828;9.064;2023-05-09T12:29:12;2.72;;;1.60;;
26113;SDS011;13966;48.828;9.064;2023-05-09T12:31:40;1.73;;;1.60;;
26113;SDS011;13966;48.828;9.064;2023-05-09T12:34:06;1.40;;;1.30;;
26113;SDS011;13966;48.828;9.064;2023-05-09T12:36:34;1.88;;;1.30;;
26113;SDS011;13966;48.828;9.064;2023-05-09T12:39:00;1.80;;;1.40;;
26113;SDS011;13966;48.828;9.064;2023-05-09T12:41:27;3.58;;;1.40;;
26113;SDS011;13966;48.828;9.064;2023-05-09T12:43:53;1.33;;;1.10;;
26113;SDS011;13966;48.828;9.064;2023-05-09T12:46:20;1.33;;;1.23;;
26113;SDS011;13966;48.828;9.064;2023-05-09T12:48:46;1.27;;;1.17;;
26113;SDS011;13966;48.828;9.064;2023-05-09T12:51:22;4.03;;;1.40;;
26113;SDS011;13966;48.828;9.064;2023-05-09T12:53:48;1.75;;;1.40;;
26113;SDS011;13966;48.828;9.064;2023-05-09T12:56:18;1.70;;;1.27;;
26113;SDS011;13966;48.828;9.064;2023-05-09T12:58:48;2.22;;;1.42;;
26113;SDS011;13966;48.828;9.064;2023-05-09T13:01:15;1.30;;;1.20;;
26113;SDS011;13966;48.828;9.064;2023-05-09T13:03:41;2.40;;;1.40;;
26113;SDS011;13966;48.828;9.064;2023-05-09T13:06:12;1.20;;;1.10;;
26113;SDS011;13966;48.828;9.064;2023-05-09T13:08:39;1.15;;;1.05;;
26113;SDS011;13966;48.828;9.064;2023-05-09T13:11:05;1.67;;;1.20;;
26113;SDS011;13966;48.828;9.064;2023-05-09T13:13:34;1.52;;;1.42;;
26113;SDS011;13966;48.828;9.064;2023-05-09T13:16:02;2.70;;;1.45;;
26113;SDS011;13966;48.828;9.064;2023-05-09T13:18:29;1.50;;;1.40;;
26113;SDS011;13966;48.828;9.064;2023-05-09T13:20:55;2.97;;;1.50;;
26113;SDS011;13966;48.828;9.064;2023-05-09T13:23:21;3.15;;;1.30;;
26113;SDS011;13966;48.828;9.064;2023-05-09T13:25:47;1.40;;;1.30;;
26113;SDS011;13966;48.828;9.064;2023-05-09T13:28:13;1.30;;;1.20;;
26113;SDS011;13966;48.828;9.064;2023-05-09T13:30:39;1.13;;;1.00;;
26113;SDS011;13966;48.828;9.064;2023-05-09T13:33:05;1.80;;;1.27;;
26113;SDS011;13966;48.828;9.064;2023-05-09T13:35:31;1.15;;;1.05;;
26113;SDS011;13966;48.828;9.064;2023-05-09T13:37:57;1.33;;;1.20;;
26113;SDS011;13966;48.828;9.064;2023-05-09T13:40:25;1.00;;;0.95;;
26113;SDS011;13966;48.828;9.064;2023-05-09T13:42:51;1.30;;;1.20;;
26113;SDS011;13966;48.828;9.064;2023-05-09T13:45:17;2.13;;;1.25;;
26113;SDS011;13966;48.828;9.064;2023-05-09T13:47:43;1.08;;;0.98;;
26113;SDS011;13966;48.828;9.064;2023-05-09T13:50:09;2.08;;;1.00;;
26113;SDS011;13966;48.828;9.064;2023-05-09T13:52:35;3.63;;;1.20;;
26113;SDS011;13966;48.828;9.064;2023-05-09T13:55:01;1.90;;;1.30;;
26113;SDS011;13966;48.828;9.064;2023-05-09T13:57:27;3.28;;;1.02;;
26113;SDS011;13966;48.828;9.064;2023-05-09T13:59:53;1.88;;;1.10;;
26113;SDS011;13966;48.828;9.064;2023-05-09T14:02:19;1.70;;;1.35;;
26113;SDS011;13966;48.828;9.064;2023-05-09T14:04:45;2.00;;;1.52;;
26113;SDS011;13966;48.828;9.064;2023-05-09T14:07:12;2.13;;;1.30;;
26113;SDS011;13966;48.828;9.064;2023-05-09T14:09:40;1.58;;;1.40;;
26113;SDS011;13966;48.828;9.064;2023-05-09T14:12:06;1.67;;;1.25;;
26113;SDS011;13966;48.828;9.064;2023-05-09T14:14:33;1.88;;;1.45;;
26113;SDS011;13966;48.828;9.064;2023-05-09T14:16:59;2.72;;;1.70;;
26113;SDS011;13966;48.828;9.064;2023-05-09T14:19:25;1.48;;;1.38;;
26113;SDS011;13966;48.828;9.064;2023-05-09T14:21:51;3.95;;;1.88;;
26113;SDS011;13966;48.828;9.064;2023-05-09T14:24:17;1.35;;;1.25;;
26113;SDS011;13966;48.828;9.064;2023-05-09T14:26:43;1.75;;;1.40;;
26113;SDS011;13966;48.828;9.064;2023-05-09T14:29:10;1.88;;;1.50;;
26113;SDS011;13966;48.828;9.064;2023-05-09T14:31:36;1.83;;;1.27;;
26113;SDS011;13966;48.828;9.064;2023-05-09T14:34:03;1.52;;;1.42;;
26113;SDS011;13966;48.828;9.064;2023-05-09T14:36:29;4.25;;;1.50;;
26113;SDS011;13966;48.828;9.064;2023-05-09T14:38:56;6.57;;;2.03;;
26113;SDS011;13966;48.828;9.064;2023-05-09T14:41:22;3.63;;;1.70;;
26113;SDS011;13966;48.828;9.064;2023-05-09T14:43:48;3.45;;;1.92;;
26113;SDS011;13966;48.828;9.064;2023-05-09T14:46:14;2.45;;;1.58;;
26113;SDS011;13966;48.828;9.064;2023-05-09T14:48:40;1.70;;;1.40;;
26113;SDS011;13966;48.828;9.064;2023-05-09T14:51:06;2.38;;;1.90;;
26113;SDS011;13966;48.828;9.064;2023-05-09T14:53:32;5.60;;;1.95;;
26113;SDS011;13966;48.828;9.064;2023-05-09T14:56:05;1.90;;;1.60;;
26113;SDS011;13966;48.828;9.064;2023-05-09T14:58:31;2.67;;;1.60;;
26113;SDS011;13966;48.828;9.064;2023-05-09T15:01:00;2.10;;;1.38;;